KMTO/MTO METAR and TAF weather

Enter ICAO airport designator
Station Type Date Time Source
KMTO METAR 2019/10/23 07:53 UTC NOAA

KMTO 230753Z AUTO 20007KT 10SM CLR 06/00 A2997 RMK AO2 SLP148 T00560000


Station Type Date Time Source
KMTO Decoded METAR 2019/10/23 07:53 UTC NOAA

MATTOON/CHARLESTON COLES CO, IL, United States (KMTO) 39-28N 88-16W 214M
Oct 23, 2019 - 03:53 AM EDT / 2019.10.23 0753 UTC
Wind: from the SSW (200 degrees) at 8 MPH (7 KT):0
Visibility: 10 mile(s):0
Sky conditions: clear
Temperature: 42.1 F (5.6 C)
Dew Point: 32.0 F (0.0 C)
Relative Humidity: 67%
Pressure (altimeter): 29.97 in. Hg (1014 hPa)
ob: KMTO 230753Z AUTO 20007KT 10SM CLR 06/00 A2997 RMK AO2 SLP148 T00560000
cycle: 8

Station Type Date Time Source
KMTO TAF UTC NOAA

Error!

Example: see airport list